createdAt,value
2023-04-02T00:00:19.129Z,88.26
2023-04-02T00:05:51.240Z,87.88
2023-04-02T00:10:55.853Z,87.53
2023-04-02T00:16:00.637Z,87.23
2023-04-02T00:21:13.741Z,87.48
2023-04-02T00:26:33.070Z,88.52
2023-04-02T00:31:41.292Z,87.55
2023-04-02T00:36:47.261Z,87.83
2023-04-02T00:41:55.132Z,87.93
2023-04-02T00:46:58.070Z,87.26
2023-04-02T00:52:06.776Z,87.32
2023-04-02T00:57:18.505Z,87.45
2023-04-02T01:02:28.592Z,87.15
2023-04-02T01:08:05.961Z,87.43
2023-04-02T01:13:21.232Z,86.44
2023-04-02T01:18:36.248Z,86.60
2023-04-02T01:23:54.681Z,86.69
2023-04-02T01:29:05.124Z,86.13
2023-04-02T01:34:11.348Z,86.82
2023-04-02T01:39:26.974Z,86.73
2023-04-02T01:44:38.218Z,87.67
2023-04-02T01:49:43.524Z,87.06
2023-04-02T01:54:47.964Z,88.61
2023-04-02T01:59:53.029Z,87.56
2023-04-02T02:04:55.808Z,87.62
2023-04-02T02:09:58.919Z,87.97
2023-04-02T02:15:03.555Z,88.39
2023-04-02T02:20:11.391Z,87.58
2023-04-02T02:25:17.543Z,88.00
2023-04-02T02:30:26.302Z,87.01
2023-04-02T02:35:34.482Z,86.75
2023-04-02T02:40:46.330Z,85.61
2023-04-02T02:45:51.496Z,86.24
2023-04-02T02:50:55.874Z,85.50
2023-04-02T02:56:02.416Z,85.71
2023-04-02T03:01:13.929Z,85.62
2023-04-02T03:06:21.125Z,85.92
2023-04-02T03:11:36.619Z,85.83
2023-04-02T03:16:48.877Z,86.49
2023-04-02T03:21:55.644Z,85.16
2023-04-02T03:27:03.456Z,85.66
2023-04-02T03:32:13.303Z,86.05
2023-04-02T03:37:21.250Z,85.79
2023-04-02T03:42:26.328Z,85.28
2023-04-02T03:47:38.225Z,86.50
2023-04-02T03:52:40.859Z,86.27
2023-04-02T03:57:55.892Z,85.96
2023-04-02T04:03:11.242Z,85.50
2023-04-02T04:08:19.131Z,86.04
2023-04-02T04:13:27.560Z,85.63
2023-04-02T04:18:38.401Z,85.22
2023-04-02T04:23:52.057Z,84.97
2023-04-02T04:29:06.561Z,85.33
2023-04-02T04:34:17.946Z,85.54
2023-04-02T04:39:24.165Z,86.06
2023-04-02T04:44:37.043Z,87.19
2023-04-02T04:49:46.895Z,87.16
2023-04-02T04:54:51.394Z,86.62
2023-04-02T05:00:06.416Z,86.85
2023-04-02T05:05:19.842Z,84.81
2023-04-02T05:10:32.015Z,83.69
2023-04-02T05:15:42.451Z,83.98
2023-04-02T05:20:55.196Z,82.92
2023-04-02T05:26:07.237Z,82.99
2023-04-02T05:31:13.970Z,83.34
2023-04-02T05:36:25.386Z,83.97
2023-04-02T05:41:37.343Z,84.90
2023-04-02T05:46:47.785Z,85.45
2023-04-02T05:51:57.587Z,86.06
2023-04-02T05:57:05.027Z,87.31
2023-04-02T06:02:19.381Z,85.63
2023-04-02T06:07:26.059Z,86.29
2023-04-02T06:12:39.418Z,86.12
2023-04-02T06:17:49.233Z,86.02
2023-04-02T06:22:57.540Z,85.97
2023-04-02T06:28:03.502Z,86.90
2023-04-02T06:33:06.465Z,86.84
2023-04-02T06:38:20.864Z,86.79
2023-04-02T06:43:33.673Z,86.54
2023-04-02T06:49:06.309Z,84.66
2023-04-02T06:54:16.978Z,84.39
2023-04-02T06:59:22.892Z,84.55
2023-04-02T07:04:25.268Z,83.67
2023-04-02T07:09:30.220Z,83.32
2023-04-02T07:14:35.260Z,83.76
2023-04-02T07:19:36.402Z,82.49
2023-04-02T07:24:38.564Z,82.63
2023-04-02T07:29:42.814Z,83.05
2023-04-02T07:34:43.877Z,83.17
2023-04-02T07:39:46.429Z,83.12
2023-04-02T07:44:58.773Z,81.76
2023-04-02T07:49:59.665Z,80.73
2023-04-02T07:55:02.909Z,83.38
2023-04-02T08:00:07.612Z,81.14
2023-04-02T08:05:18.110Z,80.60
2023-04-02T08:10:22.524Z,80.59
2023-04-02T08:15:24.279Z,79.86
2023-04-02T08:20:28.722Z,78.88
2023-04-02T08:25:31.085Z,79.17
2023-04-02T08:30:32.477Z,78.20
2023-04-02T08:35:34.259Z,76.00
2023-04-02T08:40:41.185Z,76.27
2023-04-02T08:45:51.487Z,75.99
2023-04-02T08:50:52.870Z,77.23
2023-04-02T08:56:03.854Z,76.31
2023-04-02T09:01:09.155Z,73.88
2023-04-02T09:06:16.554Z,73.16
2023-04-02T09:11:25.423Z,73.92
2023-04-02T09:16:43.537Z,72.62
2023-04-02T09:21:47.225Z,72.68
2023-04-02T09:26:49.638Z,72.19
2023-04-02T09:32:00.637Z,73.39
2023-04-02T09:37:09.805Z,74.86
2023-04-02T09:42:31.944Z,75.76
2023-04-02T09:47:34.011Z,77.90
2023-04-02T09:52:36.468Z,76.14
2023-04-02T09:57:39.014Z,75.51
2023-04-02T10:02:41.481Z,75.30
2023-04-02T10:07:46.094Z,74.26
2023-04-02T10:12:51.889Z,73.51
2023-04-02T10:18:01.521Z,73.30
2023-04-02T10:23:04.899Z,73.04
2023-04-02T10:28:25.103Z,72.84
2023-04-02T10:33:31.539Z,71.78
2023-04-02T10:38:43.904Z,72.16
2023-04-02T10:44:18.908Z,72.49
2023-04-02T10:49:32.445Z,69.82
2023-04-02T10:54:42.551Z,70.08
2023-04-02T10:59:50.324Z,70.19
2023-04-02T11:04:52.251Z,70.69
2023-04-02T11:09:58.003Z,69.74
2023-04-02T11:15:00.843Z,70.56
2023-04-02T11:20:43.356Z,69.05
2023-04-02T11:25:45.015Z,69.92
2023-04-02T11:30:49.815Z,69.93
2023-04-02T11:35:51.305Z,69.24
2023-04-02T11:40:54.806Z,68.96
2023-04-02T11:46:00.224Z,69.46
2023-04-02T11:51:04.924Z,69.36
2023-04-02T11:56:21.986Z,69.80
2023-04-02T12:01:53.575Z,69.46
2023-04-02T12:07:26.826Z,67.32
2023-04-02T12:12:32.806Z,65.10
2023-04-02T12:17:37.276Z,66.88
2023-04-02T12:22:41.829Z,65.92
2023-04-02T12:27:46.379Z,65.17
2023-04-02T12:32:50.963Z,64.54
2023-04-02T12:37:53.894Z,63.16
2023-04-02T12:42:55.320Z,62.25
2023-04-02T12:47:58.901Z,61.13
2023-04-02T12:53:01.801Z,62.14
2023-04-02T12:58:05.120Z,62.33
2023-04-02T13:03:22.564Z,61.79
2023-04-02T13:08:27.320Z,60.11
2023-04-02T13:13:31.347Z,61.13
2023-04-02T13:18:36.140Z,61.09
2023-04-02T13:23:38.527Z,62.09
2023-04-02T13:28:39.556Z,63.61
2023-04-02T13:33:42.490Z,64.73
2023-04-02T13:38:46.553Z,64.38
2023-04-02T13:43:50.860Z,62.79
2023-04-02T13:48:56.834Z,62.11
2023-04-02T13:54:00.100Z,62.32
2023-04-02T13:59:02.908Z,63.09
2023-04-02T14:04:06.368Z,64.04
2023-04-02T14:09:18.788Z,63.99
2023-04-02T14:14:33.168Z,64.50
2023-04-02T14:19:49.739Z,64.39
2023-04-02T14:25:02.168Z,63.48
2023-04-02T14:30:08.774Z,64.18
2023-04-02T14:35:25.997Z,64.32
2023-04-02T14:40:34.072Z,64.11
2023-04-02T14:45:48.064Z,64.35
2023-04-02T14:50:55.592Z,63.29
2023-04-02T14:56:01.142Z,64.50
2023-04-02T15:01:07.642Z,62.80
2023-04-02T15:06:20.015Z,62.52
2023-04-02T15:11:26.172Z,62.99
2023-04-02T15:16:28.836Z,61.91
2023-04-02T15:21:57.478Z,61.62
2023-04-02T15:27:24.007Z,62.95
2023-04-02T15:32:38.059Z,62.44
2023-04-02T15:37:51.746Z,62.24
2023-04-02T15:43:00.760Z,61.92
2023-04-02T15:48:29.159Z,62.63
2023-04-02T15:53:45.998Z,65.86
2023-04-02T15:59:24.958Z,62.89
2023-04-02T16:04:40.593Z,62.50
2023-04-02T16:09:54.403Z,63.32
2023-04-02T16:15:06.743Z,62.99
2023-04-02T16:20:19.543Z,63.21
2023-04-02T16:25:28.291Z,62.88
2023-04-02T16:30:42.254Z,63.67
2023-04-02T16:35:55.321Z,63.13
2023-04-02T16:41:10.121Z,63.57
2023-04-02T16:46:38.181Z,62.86
2023-04-02T16:51:46.598Z,63.50
2023-04-02T16:57:04.288Z,63.77
2023-04-02T17:02:20.823Z,63.16
2023-04-02T17:07:34.894Z,63.49
2023-04-02T17:12:45.929Z,63.13
2023-04-02T17:17:46.995Z,64.09
2023-04-02T17:22:48.529Z,63.64
2023-04-02T17:27:55.669Z,63.81
2023-04-02T17:32:56.585Z,63.93
2023-04-02T17:38:08.274Z,64.06
2023-04-02T17:43:26.421Z,63.53
2023-04-02T17:48:33.716Z,64.67
2023-04-02T17:53:45.572Z,64.17
2023-04-02T17:59:16.749Z,64.67
2023-04-02T18:04:34.678Z,65.36
2023-04-02T18:09:46.727Z,65.17
2023-04-02T18:15:03.727Z,65.32
2023-04-02T18:20:17.792Z,65.98
2023-04-02T18:25:33.422Z,65.27
2023-04-02T18:30:40.606Z,65.67
2023-04-02T18:35:53.756Z,66.76
2023-04-02T18:41:06.778Z,66.50
2023-04-02T18:46:22.249Z,66.73
2023-04-02T18:51:25.332Z,66.43
2023-04-02T18:56:27.580Z,66.54
2023-04-02T19:01:35.534Z,66.85
2023-04-02T19:06:40.351Z,67.77
2023-04-02T19:11:42.932Z,67.41
2023-04-02T19:17:04.212Z,67.56
2023-04-02T19:22:31.524Z,68.12
2023-04-02T19:27:40.702Z,67.98
2023-04-02T19:32:48.304Z,67.73
2023-04-02T19:37:59.508Z,68.32
2023-04-02T19:43:00.615Z,69.07
2023-04-02T19:48:10.822Z,68.70
2023-04-02T19:53:11.696Z,69.02
2023-04-02T19:58:23.083Z,69.35
2023-04-02T20:03:25.475Z,68.92
2023-04-02T20:08:26.345Z,68.85
2023-04-02T20:13:27.154Z,68.21
2023-04-02T20:18:29.602Z,67.93
2023-04-02T20:23:30.358Z,67.96
2023-04-02T20:28:31.844Z,68.02
2023-04-02T20:33:33.998Z,68.17
2023-04-02T20:38:35.899Z,68.03
2023-04-02T20:43:40.448Z,67.87
2023-04-02T20:48:42.626Z,67.72
2023-04-02T20:53:43.836Z,67.36
2023-04-02T20:58:47.804Z,67.31
2023-04-02T21:03:50.686Z,67.33
2023-04-02T21:08:51.773Z,67.12
2023-04-02T21:13:52.851Z,66.32
2023-04-02T21:18:55.533Z,65.90
2023-04-02T21:23:58.016Z,65.06
2023-04-02T21:28:58.890Z,65.29
2023-04-02T21:34:01.257Z,64.49
2023-04-02T21:39:03.485Z,64.78
2023-04-02T21:44:06.421Z,64.36
2023-04-02T21:49:09.086Z,64.65
2023-04-02T21:54:10.523Z,64.52
2023-04-02T21:59:13.444Z,64.27
2023-04-02T22:04:18.821Z,64.37
2023-04-02T22:09:21.536Z,63.50
2023-04-02T22:14:22.976Z,64.21
2023-04-02T22:19:25.346Z,64.11
2023-04-02T22:24:27.237Z,64.24
2023-04-02T22:29:29.091Z,64.21
2023-04-02T22:34:31.339Z,64.16
2023-04-02T22:39:32.007Z,63.43
2023-04-02T22:44:32.706Z,64.24
2023-04-02T22:49:34.698Z,64.11
2023-04-02T22:54:35.654Z,64.49
2023-04-02T22:59:36.297Z,63.72
2023-04-02T23:04:38.394Z,63.42
2023-04-02T23:09:39.104Z,63.38
2023-04-02T23:14:39.814Z,63.45
2023-04-02T23:19:41.883Z,62.19
2023-04-02T23:24:42.587Z,62.52
2023-04-02T23:29:43.252Z,62.40
2023-04-02T23:34:45.278Z,62.08
2023-04-02T23:39:46.046Z,62.47
2023-04-02T23:44:46.715Z,61.72
2023-04-02T23:49:48.775Z,61.73
2023-04-02T23:54:49.446Z,60.37
2023-04-02T23:59:50.235Z,60.73
